Time;durP1;ratioP1;P1;durP2;ratioP2;P2;SDS_P1;SDS_P2;PMS_P1;PMS_P2;Temp;Humidity;BMP_temperature;BMP_pressure;BME280_temperature;BME280_humidity;BME280_pressure;Samples;Min_cycle;Max_cycle;Signal;HPM_P1;HPM_P2
2022/09/04 00:01:26;;;;;;;;;;;;;;;14.90;76.57;100471.50;4969491;28;1381;-84
2022/09/04 00:03:57;;;;;;;;;;;;;;;14.90;76.11;100476.19;4970468;28;1273;-85
2022/09/04 00:06:27;;;;;;;;;;;;;;;14.74;76.80;100478.47;4956876;28;1250;-85
2022/09/04 00:09:00;;;;;;;;;;;;;;;14.67;78.10;100480.81;4964274;28;1243;-85
2022/09/04 00:11:36;;;;;;;;;;;;;;;14.90;76.39;100473.44;4992254;28;1169;-85
2022/09/04 00:14:05;;;;;;;;;;;;;;;14.93;77.02;100470.88;4974980;28;1465;-85
2022/09/04 00:16:42;;;;;;;;;;;;;;;14.68;76.76;100477.78;4986121;28;1226;-84
2022/09/04 00:19:27;;;;;;;;;;;;;;;14.77;76.56;100475.91;4976069;28;1963;-85
2022/09/04 00:22:00;;;;;;;;;;;;;;;14.73;77.42;100476.84;4976113;28;1316;-85
2022/09/04 00:24:36;;;;;;;;;;;;;;;14.65;76.82;100481.13;4976906;28;1542;-85
2022/09/04 00:27:07;;;;;;;;;;;;;;;14.70;77.09;100485.72;4974423;28;1399;-84
2022/09/04 00:29:51;;;;;;;;;;;;;;;14.73;77.95;100487.84;4994751;28;1546;-85
2022/09/04 00:32:22;;;;;;;;;;;;;;;14.74;77.75;100481.22;4995541;28;1366;-85
2022/09/04 00:34:56;;;;;;;;;;;;;;;14.64;76.91;100486.94;4971897;28;1297;-85
2022/09/04 00:37:24;;;;;;;;;;;;;;;14.57;77.10;100486.53;4983810;28;1316;-85
2022/09/04 00:40:01;;;;;;;;;;;;;;;14.47;78.25;100495.81;4989881;28;1947;-85
2022/09/04 00:42:29;;;;;;;;;;;;;;;14.48;77.77;100494.72;4991004;28;1282;-85
2022/09/04 00:45:13;;;;;;;;;;;;;;;14.39;77.56;100494.59;4979062;28;1300;-85
2022/09/04 00:48:03;;;;;;;;;;;;;;;14.45;78.14;100495.34;4977900;28;1301;-85
2022/09/04 00:50:58;;;;;;;;;;;;;;;14.36;78.01;100491.63;4976771;28;1360;-85
2022/09/04 00:53:36;;;;;;;;;;;;;;;14.30;77.90;100490.91;5002940;28;1257;-84
2022/09/04 00:56:04;;;;;;;;;;;;;;;14.33;77.42;100490.31;4975798;28;1364;-84
2022/09/04 00:58:33;;;;;;;;;;;;;;;14.31;77.32;100494.47;4962999;28;1906;-84
2022/09/04 01:00:58;;;;;;;;;;;;;;;14.34;77.59;100496.63;4983586;28;1773;-85
2022/09/04 01:03:35;;;;;;;;;;;;;;;14.45;78.14;100495.34;5006196;28;1267;-85
2022/09/04 01:06:17;;;;;;;;;;;;;;;14.43;76.77;100489.31;4979556;28;1727;-85
2022/09/04 01:08:45;;;;;;;;;;;;;;;14.31;77.86;100497.22;4977666;28;1230;-84
2022/09/04 01:11:23;;;;;;;;;;;;;;;13.93;79.44;100499.34;4985802;28;1186;-85
2022/09/04 01:14:12;;;;;;;;;;;;;;;14.11;78.70;100505.91;4987888;28;1344;-85
2022/09/04 01:16:55;;;;;;;;;;;;;;;14.15;78.19;100504.16;4986929;28;1396;-84
2022/09/04 01:19:48;;;;;;;;;;;;;;;14.12;78.13;100507.53;4986577;28;1965;-85
2022/09/04 01:22:20;;;;;;;;;;;;;;;14.14;78.24;100503.34;4985684;28;1268;-85
2022/09/04 01:24:52;;;;;;;;;;;;;;;14.22;79.22;100504.56;4986193;28;1260;-85
2022/09/04 01:27:31;;;;;;;;;;;;;;;14.22;79.02;100510.88;4981767;28;1282;-85
2022/09/04 01:30:11;;;;;;;;;;;;;;;14.17;78.65;100510.19;4987412;28;1755;-86
2022/09/04 01:32:58;;;;;;;;;;;;;;;14.17;78.88;100515.69;4974292;28;1647;-84
2022/09/04 01:35:38;;;;;;;;;;;;;;;14.20;79.06;100517.84;4991458;28;1354;-85
2022/09/04 01:38:12;;;;;;;;;;;;;;;14.15;78.35;100529.75;4974102;28;1977;-85
2022/09/04 01:40:53;;;;;;;;;;;;;;;14.10;78.28;100523.53;4964260;28;1332;-85
2022/09/04 01:43:20;;;;;;;;;;;;;;;14.03;78.27;100518.44;4979312;28;1715;-85
2022/09/04 01:45:51;;;;;;;;;;;;;;;13.96;79.21;100520.72;4999286;28;1127;-85
2022/09/04 01:48:20;;;;;;;;;;;;;;;13.84;79.55;100512.16;4981309;28;1352;-85
2022/09/04 01:50:47;;;;;;;;;;;;;;;13.84;78.45;100512.97;5004979;28;1295;-85
2022/09/04 01:53:22;;;;;;;;;;;;;;;13.74;79.50;100515.88;4984231;28;1343;-85
2022/09/04 01:55:50;;;;;;;;;;;;;;;13.69;79.57;100506.91;4998738;28;1147;-85
2022/09/04 01:58:16;;;;;;;;;;;;;;;13.66;79.67;100507.50;4981999;28;1961;-85
2022/09/04 02:00:51;;;;;;;;;;;;;;;13.68;79.54;100517.09;4979944;28;914;-85
2022/09/04 02:03:25;;;;;;;;;;;;;;;13.66;79.00;100519.34;4982695;28;1702;-85
2022/09/04 02:06:09;;;;;;;;;;;;;;;13.67;78.98;100517.41;4977798;28;1390;-85
2022/09/04 02:08:40;;;;;;;;;;;;;;;13.63;79.31;100519.91;4984444;28;1293;-85
2022/09/04 02:11:20;;;;;;;;;;;;;;;13.61;79.01;100522.16;4990721;28;1366;-84
2022/09/04 02:14:07;;;;;;;;;;;;;;;13.53;80.02;100512.66;4977870;28;1577;-85
2022/09/04 02:16:32;;;;;;;;;;;;;;;13.46;79.93;100509.47;4975551;28;1298;-85
2022/09/04 02:19:10;;;;;;;;;;;;;;;13.49;80.52;100508.06;4975930;28;1982;-85
2022/09/04 02:21:39;;;;;;;;;;;;;;;13.47;80.30;100513.03;4986859;28;1423;-85
2022/09/04 02:24:07;;;;;;;;;;;;;;;13.45;79.78;100507.84;4996083;28;1424;-85
2022/09/04 02:26:36;;;;;;;;;;;;;;;13.17;80.82;100514.34;4985460;28;1558;-85
2022/09/04 02:29:27;;;;;;;;;;;;;;;13.21;80.28;100513.44;4994090;28;1489;-85
2022/09/04 02:31:53;;;;;;;;;;;;;;;13.19;80.97;100507.41;4948860;28;1417;-85
2022/09/04 02:34:18;;;;;;;;;;;;;;;13.02;81.16;100509.00;4978639;28;1479;-85
2022/09/04 02:36:46;;;;;;;;;;;;;;;13.10;80.38;100508.38;4982859;28;1208;-85
2022/09/04 02:39:26;;;;;;;;;;;;;;;13.07;80.40;100515.25;4960303;28;1875;-85
2022/09/04 02:41:57;;;;;;;;;;;;;;;13.06;81.31;100512.81;4978642;28;1263;-85
2022/09/04 02:44:37;;;;;;;;;;;;;;;12.96;80.86;100511.00;4977811;28;1509;-85
2022/09/04 02:47:22;;;;;;;;;;;;;;;12.98;81.23;100513.47;4964442;28;1618;-85
2022/09/04 02:49:54;;;;;;;;;;;;;;;13.09;80.71;100515.78;5004357;28;1328;-85
2022/09/04 02:52:32;;;;;;;;;;;;;;;13.08;81.37;100519.66;4983875;28;1587;-85
2022/09/04 02:55:17;;;;;;;;;;;;;;;13.07;81.15;100518.00;4985867;28;1414;-85
2022/09/04 02:58:01;;;;;;;;;;;;;;;13.09;80.74;100520.47;4965746;28;1327;-85
2022/09/04 03:00:38;;;;;;;;;;;;;;;13.11;80.42;100530.03;4969068;28;1309;-85
2022/09/04 03:03:09;;;;;;;;;;;;;;;13.11;80.63;100535.53;4972480;28;1861;-85
2022/09/04 03:05:41;;;;;;;;;;;;;;;12.85;80.37;100507.59;4993091;28;1092;-85
2022/09/04 03:08:11;;;;;;;;;;;;;;;13.05;80.52;100544.16;4978889;28;1835;-85
2022/09/04 03:10:44;;;;;;;;;;;;;;;12.97;80.78;100545.63;4985943;28;1267;-85
2022/09/04 03:13:26;;;;;;;;;;;;;;;12.82;81.67;100543.91;4989544;28;1503;-85
2022/09/04 03:16:00;;;;;;;;;;;;;;;12.76;82.22;100549.75;4979941;28;1247;-84
2022/09/04 03:18:29;;;;;;;;;;;;;;;12.83;81.99;100545.53;4998095;28;1879;-85
2022/09/04 03:21:00;;;;;;;;;;;;;;;12.88;81.55;100550.13;4979334;28;1880;-85
2022/09/04 03:23:31;;;;;;;;;;;;;;;12.89;81.79;100554.53;4979037;28;1323;-85
2022/09/04 03:26:13;;;;;;;;;;;;;;;12.81;81.74;100552.44;4982919;28;1492;-85
2022/09/04 03:28:44;;;;;;;;;;;;;;;12.80;81.54;100554.34;4979985;28;1314;-85
2022/09/04 03:31:42;;;;;;;;;;;;;;;12.79;81.64;100551.91;4980065;28;1203;-85
2022/09/04 03:34:16;;;;;;;;;;;;;;;12.76;81.43;100553.28;4939981;28;1275;-85
2022/09/04 03:36:56;;;;;;;;;;;;;;;12.73;81.64;100562.13;4988078;28;1524;-85
2022/09/04 03:39:28;;;;;;;;;;;;;;;12.71;81.77;100569.03;4995437;28;1899;-84
2022/09/04 03:42:05;;;;;;;;;;;;;;;12.68;81.83;100564.94;5001758;28;1329;-85
2022/09/04 03:44:45;;;;;;;;;;;;;;;12.59;81.61;100561.19;4988228;28;1367;-85
2022/09/04 03:47:16;;;;;;;;;;;;;;;12.46;82.38;100559.97;4993555;28;1523;-86
2022/09/04 03:49:45;;;;;;;;;;;;;;;12.30;82.51;100568.66;4981272;28;1443;-86
2022/09/04 03:52:13;;;;;;;;;;;;;;;12.37;82.84;100569.13;4986692;28;1627;-85
2022/09/04 03:54:57;;;;;;;;;;;;;;;12.36;82.57;100573.81;4994885;28;1508;-87
2022/09/04 03:57:45;;;;;;;;;;;;;;;12.29;82.60;100572.53;4969957;28;1386;-86
2022/09/04 04:00:16;;;;;;;;;;;;;;;12.27;82.60;100569.25;4994808;28;1888;-86
2022/09/04 04:03:01;;;;;;;;;;;;;;;12.15;83.34;100580.63;5004592;28;1508;-85
2022/09/04 04:05:45;;;;;;;;;;;;;;;12.22;83.54;100585.75;4984141;28;1425;-86
2022/09/04 04:08:10;;;;;;;;;;;;;;;12.28;83.17;100585.41;4998181;28;1441;-86
2022/09/04 04:10:45;;;;;;;;;;;;;;;12.19;83.06;100578.91;4981442;28;965;-86
2022/09/04 04:13:34;;;;;;;;;;;;;;;12.21;82.91;100587.69;4993183;28;1571;-85
2022/09/04 04:16:14;;;;;;;;;;;;;;;12.18;82.75;100582.78;4964190;28;1302;-85
2022/09/04 04:18:39;;;;;;;;;;;;;;;12.18;83.30;100580.03;4963996;28;1950;-86
2022/09/04 04:21:12;;;;;;;;;;;;;;;12.23;83.56;100582.75;4983639;28;1405;-85
2022/09/04 04:23:46;;;;;;;;;;;;;;;12.27;83.12;100589.28;4980698;28;1672;-86
2022/09/04 04:26:28;;;;;;;;;;;;;;;12.20;83.60;100588.78;5006124;28;1758;-86
2022/09/04 04:28:58;;;;;;;;;;;;;;;12.27;83.49;100592.00;4990660;28;1449;-85
2022/09/04 04:31:43;;;;;;;;;;;;;;;12.30;83.28;100580.47;4989956;28;1454;-85
2022/09/04 04:34:22;;;;;;;;;;;;;;;12.29;83.45;100589.81;4988202;28;1514;-85
2022/09/04 04:37:12;;;;;;;;;;;;;;;12.19;83.11;100597.31;4980154;28;1291;-86
2022/09/04 04:39:43;;;;;;;;;;;;;;;12.09;83.43;100601.78;4981446;28;1871;-85
2022/09/04 04:42:08;;;;;;;;;;;;;;;12.16;83.70;100595.97;4989040;28;1339;-85
2022/09/04 04:47:35;;;;;;;;;;;;;;;12.15;83.57;100610.00;4990301;28;1646;-85
2022/09/04 04:50:19;;;;;;;;;;;;;;;12.11;84.05;100616.03;4992384;28;1795;-85
2022/09/04 04:52:55;;;;;;;;;;;;;;;12.10;84.13;100610.84;4987694;28;1517;-86
2022/09/04 04:55:20;;;;;;;;;;;;;;;12.17;84.15;100616.81;5005688;28;1672;-86
2022/09/04 04:58:04;;;;;;;;;;;;;;;12.16;84.07;100615.19;4985936;28;1322;-85
2022/09/04 05:00:52;;;;;;;;;;;;;;;12.14;83.97;100622.88;4981389;28;1412;-86
2022/09/04 05:03:26;;;;;;;;;;;;;;;12.07;84.50;100620.47;4989224;28;948;-85
2022/09/04 05:06:11;;;;;;;;;;;;;;;12.09;84.60;100625.66;4983718;28;1419;-86
2022/09/04 05:08:41;;;;;;;;;;;;;;;12.08;84.49;100635.00;4983692;28;1671;-86
2022/09/04 05:11:09;;;;;;;;;;;;;;;12.10;83.95;100639.09;4994439;28;1437;-85
2022/09/04 05:13:48;;;;;;;;;;;;;;;12.06;84.70;100639.97;4991225;28;1821;-85
2022/09/04 05:16:23;;;;;;;;;;;;;;;11.92;84.86;100611.53;5010712;28;1417;-85
2022/09/04 05:19:06;;;;;;;;;;;;;;;12.10;84.81;100644.56;4981915;28;1890;-85
2022/09/04 05:21:31;;;;;;;;;;;;;;;12.13;85.06;100644.03;4998824;28;1410;-86
2022/09/04 05:24:14;;;;;;;;;;;;;;;12.19;84.88;100653.00;4992113;28;1508;-86
2022/09/04 05:26:46;;;;;;;;;;;;;;;12.19;84.82;100660.44;4998964;28;1481;-85
2022/09/04 05:29:11;;;;;;;;;;;;;;;12.21;84.94;100663.72;4984193;28;1656;-85
2022/09/04 05:31:55;;;;;;;;;;;;;;;12.25;84.66;100662.03;4983801;28;1641;-86
2022/09/04 05:34:39;;;;;;;;;;;;;;;12.16;84.94;100663.75;4983866;28;1739;-86
2022/09/04 05:37:04;;;;;;;;;;;;;;;12.13;85.00;100665.16;4983524;28;1803;-86
2022/09/04 05:39:35;;;;;;;;;;;;;;;12.13;85.57;100673.38;4984279;28;1963;-85
2022/09/04 05:42:06;;;;;;;;;;;;;;;12.12;85.56;100680.78;4991687;28;1711;-85
2022/09/04 05:44:36;;;;;;;;;;;;;;;12.15;85.61;100675.84;4984162;28;1529;-85
2022/09/04 05:47:28;;;;;;;;;;;;;;;12.15;85.73;100684.06;4993997;28;1730;-86
2022/09/04 05:50:07;;;;;;;;;;;;;;;12.14;85.56;100683.25;4963463;28;1923;-85
2022/09/04 05:52:41;;;;;;;;;;;;;;;12.16;85.77;100680.22;5005099;28;1336;-85
2022/09/04 05:55:14;;;;;;;;;;;;;;;12.15;85.69;100686.81;4985563;28;1632;-85
2022/09/04 05:57:50;;;;;;;;;;;;;;;12.12;85.75;100683.53;4989917;28;1664;-85
2022/09/04 06:00:16;;;;;;;;;;;;;;;12.12;86.67;100686.28;4982295;28;1883;-85
2022/09/04 06:02:48;;;;;;;;;;;;;;;12.13;86.56;100687.91;4988481;28;1440;-85
2022/09/04 06:05:36;;;;;;;;;;;;;;;12.21;86.73;100697.47;4983314;28;1315;-85
2022/09/04 06:08:12;;;;;;;;;;;;;;;12.22;86.49;100701.03;4965648;28;1382;-86
2022/09/04 06:10:56;;;;;;;;;;;;;;;12.23;87.01;100700.75;4990044;28;1410;-85
2022/09/04 06:13:37;;;;;;;;;;;;;;;12.27;86.88;100696.31;4986379;28;1537;-85
2022/09/04 06:16:21;;;;;;;;;;;;;;;12.31;87.80;100705.63;5001849;28;1686;-86
2022/09/04 06:18:55;;;;;;;;;;;;;;;12.34;88.06;100709.69;4989622;28;1942;-85
2022/09/04 06:21:40;;;;;;;;;;;;;;;12.37;88.44;100707.22;4993020;28;1489;-85
2022/09/04 06:24:23;;;;;;;;;;;;;;;12.42;88.14;100700.84;4975908;28;1430;-85
2022/09/04 06:26:54;;;;;;;;;;;;;;;12.44;88.30;100706.88;4984006;28;1492;-85
2022/09/04 06:29:38;;;;;;;;;;;;;;;12.47;88.52;100709.06;4988737;28;1319;-85
2022/09/04 06:32:22;;;;;;;;;;;;;;;12.48;88.75;100713.44;4983597;28;1287;-84
2022/09/04 06:34:53;;;;;;;;;;;;;;;12.51;89.19;100710.09;5011178;28;1388;-84
2022/09/04 06:37:36;;;;;;;;;;;;;;;12.51;89.26;100713.66;4985585;28;1410;-85
2022/09/04 06:40:08;;;;;;;;;;;;;;;12.58;89.25;100715.28;4982706;28;1871;-85
2022/09/04 06:42:52;;;;;;;;;;;;;;;12.60;89.67;100704.81;4967339;28;1734;-85
2022/09/04 06:45:22;;;;;;;;;;;;;;;12.68;89.27;100702.25;4976087;28;1861;-87
2022/09/04 06:47:47;;;;;;;;;;;;;;;12.81;88.11;100711.75;4990723;28;1600;-87
2022/09/04 06:50:19;;;;;;;;;;;;;;;12.94;88.58;100708.31;4975774;28;1049;-87
2022/09/04 06:52:59;;;;;;;;;;;;;;;13.02;87.74;100710.41;4975917;28;1417;-88
2022/09/04 06:55:28;;;;;;;;;;;;;;;13.09;87.57;100721.91;4993605;28;1356;-87
2022/09/04 06:58:12;;;;;;;;;;;;;;;13.16;86.85;100718.84;4989427;28;1628;-86
2022/09/04 07:00:43;;;;;;;;;;;;;;;13.21;86.87;100722.31;4987124;28;1866;-86
2022/09/04 07:03:27;;;;;;;;;;;;;;;13.24;87.09;100718.19;4985238;28;1172;-86
2022/09/04 07:06:17;;;;;;;;;;;;;;;13.29;87.34;100722.78;4998878;28;1345;-86
2022/09/04 07:08:56;;;;;;;;;;;;;;;13.37;87.44;100727.63;4983483;28;1500;-86
2022/09/04 07:11:23;;;;;;;;;;;;;;;13.41;87.92;100732.28;4982146;28;1256;-86
2022/09/04 07:13:58;;;;;;;;;;;;;;;13.42;87.32;100722.91;4975612;28;1034;-86
2022/09/04 07:16:33;;;;;;;;;;;;;;;13.46;86.81;100728.63;4991575;28;1823;-87
2022/09/04 07:19:02;;;;;;;;;;;;;;;13.48;87.46;100727.22;4974320;28;1903;-86
2022/09/04 07:21:47;;;;;;;;;;;;;;;13.52;87.01;100725.53;4974441;28;1412;-87
2022/09/04 07:24:25;;;;;;;;;;;;;;;13.60;86.10;100726.81;4976989;28;1359;-85
2022/09/04 07:26:56;;;;;;;;;;;;;;;13.67;85.91;100723.69;4983526;28;1235;-85
2022/09/04 07:29:30;;;;;;;;;;;;;;;13.73;86.84;100715.06;4998805;28;1675;-85
2022/09/04 07:32:00;;;;;;;;;;;;;;;13.78;86.71;100722.47;4984657;28;1277;-86
2022/09/04 07:34:43;;;;;;;;;;;;;;;13.87;85.72;100726.16;4977425;28;1356;-86
2022/09/04 07:37:27;;;;;;;;;;;;;;;13.90;86.54;100729.13;4988878;28;1330;-86
2022/09/04 07:40:04;;;;;;;;;;;;;;;13.93;86.37;100733.25;4961743;28;1898;-86
2022/09/04 07:42:32;;;;;;;;;;;;;;;13.94;85.97;100727.44;4993110;28;1176;-85
2022/09/04 07:45:05;;;;;;;;;;;;;;;13.97;86.24;100735.09;4975497;28;1465;-85
2022/09/04 07:47:43;;;;;;;;;;;;;;;14.05;84.80;100736.34;4977661;28;1782;-85
2022/09/04 07:50:17;;;;;;;;;;;;;;;14.12;84.58;100738.75;4985874;28;1391;-86
2022/09/04 07:53:03;;;;;;;;;;;;;;;14.17;84.38;100739.47;4992961;28;1202;-87
2022/09/04 07:55:36;;;;;;;;;;;;;;;14.22;84.35;100742.16;4997908;28;1241;-87
2022/09/04 07:58:03;;;;;;;;;;;;;;;14.27;84.60;100735.75;4981539;28;1969;-86
2022/09/04 08:00:47;;;;;;;;;;;;;;;14.30;84.85;100737.91;4978808;28;1759;-86
2022/09/04 08:03:31;;;;;;;;;;;;;;;14.41;85.53;100755.94;4975349;28;1496;-86
2022/09/04 08:06:18;;;;;;;;;;;;;;;14.43;84.56;100756.47;4977225;28;1294;-87
2022/09/04 08:08:46;;;;;;;;;;;;;;;14.48;85.19;100756.38;5001370;28;1821;-86
2022/09/04 08:11:21;;;;;;;;;;;;;;;14.59;83.97;100757.03;4976504;28;1408;-86
2022/09/04 08:13:46;;;;;;;;;;;;;;;14.60;83.22;100759.47;4967045;28;1185;-87
2022/09/04 08:16:16;;;;;;;;;;;;;;;14.63;84.34;100758.84;4972708;28;971;-86
2022/09/04 08:18:56;;;;;;;;;;;;;;;14.69;84.04;100768.69;4981650;28;1871;-86
2022/09/04 08:21:29;;;;;;;;;;;;;;;14.76;84.15;100769.13;4978633;28;1430;-86
2022/09/04 08:24:17;;;;;;;;;;;;;;;14.75;83.88;100773.00;4981658;28;1572;-86
2022/09/04 08:27:03;;;;;;;;;;;;;;;14.89;83.85;100774.97;4990152;28;1119;-86
2022/09/04 08:29:38;;;;;;;;;;;;;;;15.01;83.83;100769.78;4973243;28;1809;-87
2022/09/04 08:32:24;;;;;;;;;;;;;;;15.03;84.46;100773.06;4996100;28;1365;-86
2022/09/04 08:35:08;;;;;;;;;;;;;;;15.00;83.48;100782.75;4981701;28;1604;-86
2022/09/04 08:37:43;;;;;;;;;;;;;;;15.05;83.90;100788.19;4984413;28;1446;-87
2022/09/04 08:40:11;;;;;;;;;;;;;;;15.26;84.15;100783.09;4960109;28;1957;-85
2022/09/04 08:42:45;;;;;;;;;;;;;;;15.38;83.08;100786.19;4961568;28;1688;-86
2022/09/04 08:45:25;;;;;;;;;;;;;;;15.40;83.27;100785.88;4978107;28;1342;-86
2022/09/04 08:48:17;;;;;;;;;;;;;;;15.49;83.87;100786.78;4970798;28;1277;-86
2022/09/04 08:50:50;;;;;;;;;;;;;;;15.60;83.39;100784.69;4989673;28;1441;-87
2022/09/04 08:53:31;;;;;;;;;;;;;;;15.64;83.28;100788.47;4986042;28;1610;-86
2022/09/04 08:56:17;;;;;;;;;;;;;;;15.71;83.18;100781.41;4973146;28;1339;-86
2022/09/04 08:58:42;;;;;;;;;;;;;;;15.77;83.00;100784.88;4977148;28;1898;-86
2022/09/04 09:01:28;;;;;;;;;;;;;;;15.91;83.34;100782.13;4984356;28;1579;-86
2022/09/04 09:04:01;;;;;;;;;;;;;;;15.98;83.20;100777.00;4986759;28;1404;-86
2022/09/04 09:06:45;;;;;;;;;;;;;;;16.01;83.15;100782.69;4990246;28;1168;-87
2022/09/04 09:09:29;;;;;;;;;;;;;;;16.01;82.98;100776.34;5000958;28;1237;-87
2022/09/04 09:12:03;;;;;;;;;;;;;;;16.01;82.79;100779.94;4999276;28;1010;-87
2022/09/04 09:14:43;;;;;;;;;;;;;;;16.06;82.96;100781.78;4999003;28;1250;-87
2022/09/04 09:17:11;;;;;;;;;;;;;;;16.18;84.28;100774.56;4985782;28;1379;-86
2022/09/04 09:19:36;;;;;;;;;;;;;;;16.23;85.56;100768.94;5001409;28;1894;-87
2022/09/04 09:22:07;;;;;;;;;;;;;;;16.28;86.03;100766.06;5000870;28;1541;-86
2022/09/04 09:24:52;;;;;;;;;;;;;;;16.31;86.50;100770.16;4999242;28;1234;-86
2022/09/04 09:27:17;;;;;;;;;;;;;;;16.44;86.47;100768.44;4974202;28;1432;-86
2022/09/04 09:30:00;;;;;;;;;;;;;;;16.50;86.35;100772.75;4990396;28;1679;-87
2022/09/04 09:32:44;;;;;;;;;;;;;;;16.68;85.51;100768.97;4982642;28;1398;-86
2022/09/04 09:35:12;;;;;;;;;;;;;;;16.84;85.74;100761.13;4986092;28;1814;-87
2022/09/04 09:37:52;;;;;;;;;;;;;;;16.79;85.64;100769.53;4991144;28;1481;-86
2022/09/04 09:40:35;;;;;;;;;;;;;;;16.80;86.23;100760.13;4985098;28;1890;-86
2022/09/04 09:43:19;;;;;;;;;;;;;;;16.83;85.17;100765.84;4970569;28;1455;-86
2022/09/04 09:45:47;;;;;;;;;;;;;;;16.98;86.43;100762.69;4974781;28;1660;-88
2022/09/04 09:48:31;;;;;;;;;;;;;;;16.95;86.82;100766.06;4985939;28;1707;-86
2022/09/04 09:51:15;;;;;;;;;;;;;;;16.96;87.19;100756.66;4981595;28;1756;-86
2022/09/04 09:53:49;;;;;;;;;;;;;;;17.01;86.37;100756.50;4994291;28;1280;-87
2022/09/04 09:56:32;;;;;;;;;;;;;;;17.09;87.07;100754.13;4991826;28;1282;-87
2022/09/04 09:59:15;;;;;;;;;;;;;;;17.17;85.98;100748.63;4997213;28;1971;-87
2022/09/04 10:01:59;;;;;;;;;;;;;;;17.20;85.61;100747.97;4971721;28;1737;-87
2022/09/04 10:04:27;;;;;;;;;;;;;;;17.42;85.68;100747.09;4988554;28;1387;-86
2022/09/04 10:07:13;;;;;;;;;;;;;;;17.44;86.01;100746.78;4970378;28;1701;-86
2022/09/04 10:09:44;;;;;;;;;;;;;;;17.55;84.83;100745.34;4985007;28;1350;-86
2022/09/04 10:12:15;;;;;;;;;;;;;;;17.49;85.68;100743.88;4987185;28;1212;-86
2022/09/04 10:14:40;;;;;;;;;;;;;;;17.51;84.41;100755.44;4988042;28;1461;-86
2022/09/04 10:17:24;;;;;;;;;;;;;;;17.50;84.45;100746.31;4973158;28;1213;-87
2022/09/04 10:20:00;;;;;;;;;;;;;;;17.51;84.04;100736.06;4963685;28;1894;-87
2022/09/04 10:22:44;;;;;;;;;;;;;;;17.58;83.76;100736.41;4978825;28;1539;-86
2022/09/04 10:25:38;;;;;;;;;;;;;;;17.64;84.39;100738.72;4986081;28;1573;-88
2022/09/04 10:28:20;;;;;;;;;;;;;;;17.67;85.07;100740.88;4966266;28;1606;-87
2022/09/04 10:30:45;;;;;;;;;;;;;;;17.81;85.26;100740.72;4986090;28;1316;-87
2022/09/04 10:33:25;;;;;;;;;;;;;;;17.98;82.45;100740.75;4984287;28;1145;-86
2022/09/04 10:36:03;;;;;;;;;;;;;;;17.96;82.92;100733.88;4973137;28;1700;-86
2022/09/04 10:38:35;;;;;;;;;;;;;;;17.91;83.97;100736.81;4978462;28;1903;-87
2022/09/04 10:41:25;;;;;;;;;;;;;;;18.07;84.06;100732.44;4985013;28;1422;-87
2022/09/04 10:43:53;;;;;;;;;;;;;;;18.17;82.36;100728.53;4999137;28;1326;-87
2022/09/04 10:46:31;;;;;;;;;;;;;;;18.12;81.64;100735.84;4987773;28;1292;-87
2022/09/04 10:48:56;;;;;;;;;;;;;;;18.15;83.22;100734.41;4985914;28;1525;-87
2022/09/04 10:51:41;;;;;;;;;;;;;;;18.28;81.26;100727.91;4989003;28;1434;-85
2022/09/04 10:54:07;;;;;;;;;;;;;;;18.29;80.65;100728.72;4983331;28;1620;-86
2022/09/04 10:56:39;;;;;;;;;;;;;;;18.26;81.26;100730.16;4994533;28;1146;-86
2022/09/04 10:59:09;;;;;;;;;;;;;;;18.33;82.24;100741.56;4987955;28;1945;-86
2022/09/04 11:01:54;;;;;;;;;;;;;;;18.36;80.73;100729.84;4992732;28;1398;-86
2022/09/04 11:04:33;;;;;;;;;;;;;;;18.49;81.29;100737.16;5009750;28;1304;-86
2022/09/04 11:07:08;;;;;;;;;;;;;;;18.54;80.75;100736.97;4969975;28;1600;-85
2022/09/04 11:09:43;;;;;;;;;;;;;;;18.57;80.94;100726.41;4968921;28;1751;-86
2022/09/04 11:12:17;;;;;;;;;;;;;;;18.53;81.80;100735.38;4994328;28;1628;-88
2022/09/04 11:14:55;;;;;;;;;;;;;;;18.57;81.62;100734.72;4981644;28;1383;-86
2022/09/04 11:17:43;;;;;;;;;;;;;;;18.67;81.14;100731.63;4988466;28;1335;-86
2022/09/04 11:20:11;;;;;;;;;;;;;;;18.75;80.89;100730.78;4969941;28;1946;-86
2022/09/04 11:22:50;;;;;;;;;;;;;;;18.78;81.06;100730.97;4993256;28;1152;-86
2022/09/04 11:25:43;;;;;;;;;;;;;;;18.92;79.88;100725.19;4987055;28;1624;-86
2022/09/04 11:28:27;;;;;;;;;;;;;;;19.21;77.50;100719.72;4988659;28;1257;-86
2022/09/04 11:31:06;;;;;;;;;;;;;;;19.09;77.77;100721.56;4991806;28;1731;-85
2022/09/04 11:33:55;;;;;;;;;;;;;;;18.95;78.14;100723.72;4978638;28;1417;-87
2022/09/04 11:36:39;;;;;;;;;;;;;;;19.03;78.76;100726.47;4983366;28;1198;-86
2022/09/04 11:39:17;;;;;;;;;;;;;;;19.13;79.72;100717.81;4982281;28;1906;-86
2022/09/04 11:42:07;;;;;;;;;;;;;;;19.21;79.14;100725.28;4996365;28;1453;-87
2022/09/04 11:44:35;;;;;;;;;;;;;;;19.23;79.71;100720.19;4996442;28;1325;-86
2022/09/04 11:47:07;;;;;;;;;;;;;;;19.22;79.45;100726.88;4994664;28;1628;-85
2022/09/04 11:49:39;;;;;;;;;;;;;;;19.25;79.43;100722.63;4991276;28;1421;-86
2022/09/04 11:52:11;;;;;;;;;;;;;;;19.35;78.10;100724.22;4986265;28;1397;-86
2022/09/04 11:54:55;;;;;;;;;;;;;;;19.36;77.53;100723.91;4978241;28;812;-87
2022/09/04 11:57:27;;;;;;;;;;;;;;;19.46;77.40;100717.16;4978559;28;1552;-86
2022/09/04 12:00:04;;;;;;;;;;;;;;;19.31;77.46;100717.72;4996640;28;1882;-86
2022/09/04 12:02:48;;;;;;;;;;;;;;;19.46;77.21;100717.16;4989182;28;1385;-86
2022/09/04 12:05:38;;;;;;;;;;;;;;;19.68;77.50;100713.28;4995624;28;1361;-85
2022/09/04 12:08:17;;;;;;;;;;;;;;;19.72;77.66;100712.28;4994230;28;1612;-86
2022/09/04 12:11:01;;;;;;;;;;;;;;;19.84;76.31;100723.47;5002127;28;1273;-86
2022/09/04 12:13:45;;;;;;;;;;;;;;;20.17;74.13;100712.44;4993968;28;1593;-86
2022/09/04 12:16:31;;;;;;;;;;;;;;;20.18;74.18;100704.91;4992630;28;1339;-86
2022/09/04 12:19:14;;;;;;;;;;;;;;;20.16;74.70;100710.00;4979987;28;1875;-87
2022/09/04 12:21:40;;;;;;;;;;;;;;;20.01;74.96;100706.69;4980472;28;1767;-86
2022/09/04 12:24:07;;;;;;;;;;;;;;;19.87;75.11;100714.47;4997610;28;1329;-86
2022/09/04 12:26:48;;;;;;;;;;;;;;;19.78;76.20;100705.38;5002000;28;1204;-86
2022/09/04 12:29:32;;;;;;;;;;;;;;;19.65;76.54;100709.22;4988692;28;1502;-86
2022/09/04 12:32:07;;;;;;;;;;;;;;;19.67;76.75;100715.25;4977306;28;1363;-86
2022/09/04 12:34:40;;;;;;;;;;;;;;;19.95;76.48;100710.00;4985910;28;1432;-86
2022/09/04 12:37:25;;;;;;;;;;;;;;;20.22;74.05;100708.66;4995303;28;1154;-86
2022/09/04 12:39:57;;;;;;;;;;;;;;;20.57;73.45;100707.22;4984768;28;1967;-85
2022/09/04 12:42:27;;;;;;;;;;;;;;;20.82;71.72;100705.31;4990285;28;1158;-85
2022/09/04 12:44:56;;;;;;;;;;;;;;;20.82;71.97;100701.72;4989725;28;1456;-85
2022/09/04 12:47:31;;;;;;;;;;;;;;;20.84;71.46;100702.97;4989890;28;1401;-84
2022/09/04 12:50:03;;;;;;;;;;;;;;;20.93;72.41;100708.44;4982316;28;1392;-84
2022/09/04 12:52:35;;;;;;;;;;;;;;;20.94;72.81;100716.44;4983093;28;1100;-85
2022/09/04 12:55:02;;;;;;;;;;;;;;;21.06;73.65;100710.91;4989642;28;1567;-85
2022/09/04 12:57:54;;;;;;;;;;;;;;;21.34;71.91;100708.31;4998556;28;1283;-85
2022/09/04 13:00:20;;;;;;;;;;;;;;;21.50;70.27;100709.22;4966891;28;1952;-85
2022/09/04 13:03:04;;;;;;;;;;;;;;;21.58;72.31;100709.44;4989645;28;1398;-85
2022/09/04 13:05:33;;;;;;;;;;;;;;;22.53;68.38;100712.38;4988685;28;1563;-85
2022/09/04 13:08:26;;;;;;;;;;;;;;;26.60;59.98;100712.59;4985706;28;1438;-84
2022/09/04 13:11:06;;;;;;;;;;;;;;;28.59;54.13;100710.06;4984810;28;1108;-85
2022/09/04 13:13:43;;;;;;;;;;;;;;;30.33;49.60;100712.09;4983544;28;1377;-85
2022/09/04 13:16:26;;;;;;;;;;;;;;;30.52;48.03;100713.66;4995134;28;1428;-85
2022/09/04 13:18:59;;;;;;;;;;;;;;;29.61;48.97;100708.63;4980617;28;1970;-85
2022/09/04 13:21:43;;;;;;;;;;;;;;;28.01;51.15;100709.41;4979638;28;1472;-85
2022/09/04 13:24:18;;;;;;;;;;;;;;;26.58;55.13;100704.53;4960776;28;835;-85
2022/09/04 13:27:06;;;;;;;;;;;;;;;24.62;59.34;100707.44;4989176;28;1629;-84
2022/09/04 13:29:50;;;;;;;;;;;;;;;23.54;62.23;100714.66;4982077;28;1798;-84
2022/09/04 13:32:34;;;;;;;;;;;;;;;23.18;64.49;100718.50;4989380;28;1305;-84
2022/09/04 13:35:02;;;;;;;;;;;;;;;23.18;63.91;100721.31;4982141;28;1079;-85
2022/09/04 13:37:35;;;;;;;;;;;;;;;22.92;62.40;100707.88;4979189;28;1509;-84
2022/09/04 13:40:06;;;;;;;;;;;;;;;22.94;63.72;100708.34;4978446;28;1950;-84